sensor_id;sensor_type;location;lat;lon;timestamp;pressure;altitude;pressure_sealevel;temperature
74449;BMP280;62878;51.026;4.472;2022-09-13T00:01:42;-6059.06;;;21.52
74449;BMP280;62878;51.026;4.472;2022-09-13T00:04:07;-6059.22;;;21.53
74449;BMP280;62878;51.026;4.472;2022-09-13T00:06:33;-6059.56;;;21.55
74449;BMP280;62878;51.026;4.472;2022-09-13T00:09:00;-6059.22;;;21.53
74449;BMP280;62878;51.026;4.472;2022-09-13T00:11:27;-6061.91;;;21.69
74449;BMP280;62878;51.026;4.472;2022-09-13T00:13:53;-6061.66;;;21.68
74449;BMP280;62878;51.026;4.472;2022-09-13T00:16:20;-6061.91;;;21.69
74449;BMP280;62878;51.026;4.472;2022-09-13T00:18:46;-6061.91;;;21.69
74449;BMP280;62878;51.026;4.472;2022-09-13T00:21:15;-6059.06;;;21.52
74449;BMP280;62878;51.026;4.472;2022-09-13T00:23:50;-6059.22;;;21.53
74449;BMP280;62878;51.026;4.472;2022-09-13T00:26:19;-6061.59;;;21.67
74449;BMP280;62878;51.026;4.472;2022-09-13T00:28:44;-6061.25;;;21.65
74449;BMP280;62878;51.026;4.472;2022-09-13T00:31:12;-6060.56;;;21.61
74449;BMP280;62878;51.026;4.472;2022-09-13T00:33:38;-6061.59;;;21.67
74449;BMP280;62878;51.026;4.472;2022-09-13T00:36:08;-6061.41;;;21.66
74449;BMP280;62878;51.026;4.472;2022-09-13T00:38:35;-6059.91;;;21.57
74449;BMP280;62878;51.026;4.472;2022-09-13T00:41:02;-6055.22;;;21.29
74449;BMP280;62878;51.026;4.472;2022-09-13T00:43:45;-6061.25;;;21.65
74449;BMP280;62878;51.026;4.472;2022-09-13T00:46:28;-6060.25;;;21.59
74449;BMP280;62878;51.026;4.472;2022-09-13T00:49:02;-6058.41;;;21.48
74449;BMP280;62878;51.026;4.472;2022-09-13T00:51:28;-6058.16;;;21.47
74449;BMP280;62878;51.026;4.472;2022-09-13T00:53:55;-6060.84;;;21.63
74449;BMP280;62878;51.026;4.472;2022-09-13T00:56:32;-6059.91;;;21.57
74449;BMP280;62878;51.026;4.472;2022-09-13T00:59:02;-6060.84;;;21.63
74449;BMP280;62878;51.026;4.472;2022-09-13T01:01:34;-6057.97;;;21.46
74449;BMP280;62878;51.026;4.472;2022-09-13T01:04:02;-6060.75;;;21.62
74449;BMP280;62878;51.026;4.472;2022-09-13T01:06:30;-6055.72;;;21.32
74449;BMP280;62878;51.026;4.472;2022-09-13T01:09:00;-6059.75;;;21.56
74449;BMP280;62878;51.026;4.472;2022-09-13T01:11:41;-6058.91;;;21.51
74449;BMP280;62878;51.026;4.472;2022-09-13T01:14:09;-6057.97;;;21.46
74449;BMP280;62878;51.026;4.472;2022-09-13T01:16:35;-6060.56;;;21.61
74449;BMP280;62878;51.026;4.472;2022-09-13T01:19:00;-6060.75;;;21.62
74449;BMP280;62878;51.026;4.472;2022-09-13T01:27:03;-6060.34;;;21.60
74449;BMP280;62878;51.026;4.472;2022-09-13T01:34:47;-6059.91;;;21.57
74449;BMP280;62878;51.026;4.472;2022-09-13T01:44:57;-6060.25;;;21.59
74449;BMP280;62878;51.026;4.472;2022-09-13T01:50:56;-6059.81;;;21.57
74449;BMP280;62878;51.026;4.472;2022-09-13T01:56:22;-6059.06;;;21.52
74449;BMP280;62878;51.026;4.472;2022-09-13T01:59:03;-6059.56;;;21.55
74449;BMP280;62878;51.026;4.472;2022-09-13T02:01:37;-6059.75;;;21.56
74449;BMP280;62878;51.026;4.472;2022-09-13T02:04:10;-6058.81;;;21.51
74449;BMP280;62878;51.026;4.472;2022-09-13T02:07:38;-6059.50;;;21.55
74449;BMP280;62878;51.026;4.472;2022-09-13T02:10:03;-6059.22;;;21.53
74449;BMP280;62878;51.026;4.472;2022-09-13T02:12:33;-6059.31;;;21.54
74449;BMP280;62878;51.026;4.472;2022-09-13T02:15:08;-6058.22;;;21.47
74449;BMP280;62878;51.026;4.472;2022-09-13T02:17:41;-6058.97;;;21.52
74449;BMP280;62878;51.026;4.472;2022-09-13T02:20:14;-6058.91;;;21.51
74449;BMP280;62878;51.026;4.472;2022-09-13T02:22:45;-6058.72;;;21.50
74449;BMP280;62878;51.026;4.472;2022-09-13T02:25:15;-6056.56;;;21.37
74449;BMP280;62878;51.026;4.472;2022-09-13T02:27:45;-6058.47;;;21.49
74449;BMP280;62878;51.026;4.472;2022-09-13T02:30:12;-6056.88;;;21.39
74449;BMP280;62878;51.026;4.472;2022-09-13T02:32:50;-6058.41;;;21.48
74449;BMP280;62878;51.026;4.472;2022-09-13T02:35:25;-6056.38;;;21.36
74449;BMP280;62878;51.026;4.472;2022-09-13T02:37:58;-6058.41;;;21.48
74449;BMP280;62878;51.026;4.472;2022-09-13T02:40:27;-6058.31;;;21.48
74449;BMP280;62878;51.026;4.472;2022-09-13T02:43:24;-6058.31;;;21.48
74449;BMP280;62878;51.026;4.472;2022-09-13T02:45:59;-6058.06;;;21.46
74449;BMP280;62878;51.026;4.472;2022-09-13T02:48:46;-6056.72;;;21.38
74449;BMP280;62878;51.026;4.472;2022-09-13T02:51:29;-6056.63;;;21.38
74449;BMP280;62878;51.026;4.472;2022-09-13T02:54:08;-6057.88;;;21.45
74449;BMP280;62878;51.026;4.472;2022-09-13T02:57:25;-6057.88;;;21.45
74449;BMP280;62878;51.026;4.472;2022-09-13T02:59:47;-6055.53;;;21.31
74449;BMP280;62878;51.026;4.472;2022-09-13T03:02:15;-6057.81;;;21.45
74449;BMP280;62878;51.026;4.472;2022-09-13T03:04:42;-6057.63;;;21.44
74449;BMP280;62878;51.026;4.472;2022-09-13T03:07:12;-6057.56;;;21.43
74449;BMP280;62878;51.026;4.472;2022-09-13T03:09:57;-6056.63;;;21.38
74449;BMP280;62878;51.026;4.472;2022-09-13T03:15:36;-6057.38;;;21.42
74449;BMP280;62878;51.026;4.472;2022-09-13T03:21:05;-6057.13;;;21.41
74449;BMP280;62878;51.026;4.472;2022-09-13T03:26:26;-6055.97;;;21.34
74449;BMP280;62878;51.026;4.472;2022-09-13T03:29:25;-6056.88;;;21.39
74449;BMP280;62878;51.026;4.472;2022-09-13T03:32:02;-6056.72;;;21.38
74449;BMP280;62878;51.026;4.472;2022-09-13T03:37:20;-6056.72;;;21.38
74449;BMP280;62878;51.026;4.472;2022-09-13T03:39:59;-6054.53;;;21.25
74449;BMP280;62878;51.026;4.472;2022-09-13T03:42:52;-6056.63;;;21.38
74449;BMP280;62878;51.026;4.472;2022-09-13T03:45:25;-6056.38;;;21.36
74449;BMP280;62878;51.026;4.472;2022-09-13T03:47:53;-6055.13;;;21.29
74449;BMP280;62878;51.026;4.472;2022-09-13T03:50:21;-6055.47;;;21.31
74449;BMP280;62878;51.026;4.472;2022-09-13T03:52:50;-6056.56;;;21.37
74449;BMP280;62878;51.026;4.472;2022-09-13T03:55:18;-6056.28;;;21.36
74449;BMP280;62878;51.026;4.472;2022-09-13T03:57:44;-6056.22;;;21.35
74449;BMP280;62878;51.026;4.472;2022-09-13T04:00:12;-6056.28;;;21.36
74449;BMP280;62878;51.026;4.472;2022-09-13T04:02:38;-6056.22;;;21.35
74449;BMP280;62878;51.026;4.472;2022-09-13T04:05:03;-6056.13;;;21.35
74449;BMP280;62878;51.026;4.472;2022-09-13T04:07:31;-6055.72;;;21.32
74449;BMP280;62878;51.026;4.472;2022-09-13T04:09:56;-6055.22;;;21.29
74449;BMP280;62878;51.026;4.472;2022-09-13T04:12:22;-6054.13;;;21.22
74449;BMP280;62878;51.026;4.472;2022-09-13T04:14:47;-6055.22;;;21.29
74449;BMP280;62878;51.026;4.472;2022-09-13T04:17:13;-6055.63;;;21.32
74449;BMP280;62878;51.026;4.472;2022-09-13T04:19:39;-6052.44;;;21.12
74449;BMP280;62878;51.026;4.472;2022-09-13T04:22:05;-6054.88;;;21.27
74449;BMP280;62878;51.026;4.472;2022-09-13T04:24:30;-6053.28;;;21.17
74449;BMP280;62878;51.026;4.472;2022-09-13T04:26:57;-6055.78;;;21.33
74449;BMP280;62878;51.026;4.472;2022-09-13T04:29:24;-6055.53;;;21.31
74449;BMP280;62878;51.026;4.472;2022-09-13T04:31:51;-6052.59;;;21.13
74449;BMP280;62878;51.026;4.472;2022-09-13T04:34:17;-6055.38;;;21.30
74449;BMP280;62878;51.026;4.472;2022-09-13T04:36:44;-6055.53;;;21.31
74449;BMP280;62878;51.026;4.472;2022-09-13T04:39:10;-6055.53;;;21.31
74449;BMP280;62878;51.026;4.472;2022-09-13T04:41:35;-6055.28;;;21.30
74449;BMP280;62878;51.026;4.472;2022-09-13T04:44:01;-6055.28;;;21.30
74449;BMP280;62878;51.026;4.472;2022-09-13T04:46:27;-6055.13;;;21.29
74449;BMP280;62878;51.026;4.472;2022-09-13T04:48:53;-6055.13;;;21.29
74449;BMP280;62878;51.026;4.472;2022-09-13T04:51:19;-6055.13;;;21.29
74449;BMP280;62878;51.026;4.472;2022-09-13T04:53:46;-6052.09;;;21.10
74449;BMP280;62878;51.026;4.472;2022-09-13T04:56:15;-6053.34;;;21.18
74449;BMP280;62878;51.026;4.472;2022-09-13T04:58:42;-6051.34;;;21.06
74449;BMP280;62878;51.026;4.472;2022-09-13T05:01:08;-6054.88;;;21.27
74449;BMP280;62878;51.026;4.472;2022-09-13T05:03:34;-6054.19;;;21.23
74449;BMP280;62878;51.026;4.472;2022-09-13T05:06:03;-6054.69;;;21.26
74449;BMP280;62878;51.026;4.472;2022-09-13T05:08:29;-6052.69;;;21.14
74449;BMP280;62878;51.026;4.472;2022-09-13T05:10:55;-6053.53;;;21.19
74449;BMP280;62878;51.026;4.472;2022-09-13T05:13:20;-6050.41;;;21.00
74449;BMP280;62878;51.026;4.472;2022-09-13T05:15:46;-6053.09;;;21.16
74449;BMP280;62878;51.026;4.472;2022-09-13T05:18:11;-6050.50;;;21.01
74449;BMP280;62878;51.026;4.472;2022-09-13T05:20:37;-6051.19;;;21.05
74449;BMP280;62878;51.026;4.472;2022-09-13T05:23:02;-6051.19;;;21.05
74449;BMP280;62878;51.026;4.472;2022-09-13T05:25:27;-6051.00;;;21.04
74449;BMP280;62878;51.026;4.472;2022-09-13T05:27:53;-6052.34;;;21.12
74449;BMP280;62878;51.026;4.472;2022-09-13T05:30:18;-6052.50;;;21.13
74449;BMP280;62878;51.026;4.472;2022-09-13T05:32:43;-6053.03;;;21.16
74449;BMP280;62878;51.026;4.472;2022-09-13T05:35:09;-6052.94;;;21.15
74449;BMP280;62878;51.026;4.472;2022-09-13T05:37:34;-6050.25;;;20.99
74449;BMP280;62878;51.026;4.472;2022-09-13T05:40:02;-6053.34;;;21.18
74449;BMP280;62878;51.026;4.472;2022-09-13T05:42:27;-6051.69;;;21.08
74449;BMP280;62878;51.026;4.472;2022-09-13T05:44:53;-6053.19;;;21.17
74449;BMP280;62878;51.026;4.472;2022-09-13T05:47:18;-6045.47;;;20.71
74449;BMP280;62878;51.026;4.472;2022-09-13T05:49:44;-6046.22;;;20.75
74449;BMP280;62878;51.026;4.472;2022-09-13T05:52:09;-6052.78;;;21.14
74449;BMP280;62878;51.026;4.472;2022-09-13T05:54:34;-6053.19;;;21.17
74449;BMP280;62878;51.026;4.472;2022-09-13T05:57:01;-6051.34;;;21.06
74449;BMP280;62878;51.026;4.472;2022-09-13T05:59:26;-6053.03;;;21.16
74449;BMP280;62878;51.026;4.472;2022-09-13T06:01:51;-6052.84;;;21.15
74449;BMP280;62878;51.026;4.472;2022-09-13T06:04:17;-6052.44;;;21.12
74449;BMP280;62878;51.026;4.472;2022-09-13T06:06:42;-6051.94;;;21.09
74449;BMP280;62878;51.026;4.472;2022-09-13T06:09:09;-6052.78;;;21.14
74449;BMP280;62878;51.026;4.472;2022-09-13T06:11:35;-6051.94;;;21.09
74449;BMP280;62878;51.026;4.472;2022-09-13T06:14:01;-6048.56;;;20.89
74449;BMP280;62878;51.026;4.472;2022-09-13T06:16:26;-6052.69;;;21.14
74449;BMP280;62878;51.026;4.472;2022-09-13T06:18:51;-6052.84;;;21.15
74449;BMP280;62878;51.026;4.472;2022-09-13T06:21:19;-6050.25;;;20.99
74449;BMP280;62878;51.026;4.472;2022-09-13T06:23:47;-6052.69;;;21.14
74449;BMP280;62878;51.026;4.472;2022-09-13T06:26:14;-6052.84;;;21.15
74449;BMP280;62878;51.026;4.472;2022-09-13T06:28:40;-6052.69;;;21.14
74449;BMP280;62878;51.026;4.472;2022-09-13T06:31:13;-6052.50;;;21.13
74449;BMP280;62878;51.026;4.472;2022-09-13T06:33:40;-6052.44;;;21.12
74449;BMP280;62878;51.026;4.472;2022-09-13T06:36:08;-6052.50;;;21.13
74449;BMP280;62878;51.026;4.472;2022-09-13T06:38:34;-6052.50;;;21.13
74449;BMP280;62878;51.026;4.472;2022-09-13T06:41:05;-6052.59;;;21.13
74449;BMP280;62878;51.026;4.472;2022-09-13T06:43:32;-6052.69;;;21.14
74449;BMP280;62878;51.026;4.472;2022-09-13T06:46:05;-6052.50;;;21.13
74449;BMP280;62878;51.026;4.472;2022-09-13T06:48:36;-6050.50;;;21.01
74449;BMP280;62878;51.026;4.472;2022-09-13T06:51:05;-6052.50;;;21.13
74449;BMP280;62878;51.026;4.472;2022-09-13T06:53:33;-6041.59;;;20.47
74449;BMP280;62878;51.026;4.472;2022-09-13T06:56:15;-6052.69;;;21.14
74449;BMP280;62878;51.026;4.472;2022-09-13T06:58:42;-6050.34;;;21.00
74449;BMP280;62878;51.026;4.472;2022-09-13T07:03:38;-6050.84;;;21.03
74449;BMP280;62878;51.026;4.472;2022-09-13T07:06:09;-6052.78;;;21.14
74449;BMP280;62878;51.026;4.472;2022-09-13T07:08:35;-6051.75;;;21.08
74449;BMP280;62878;51.026;4.472;2022-09-13T07:11:00;-6052.94;;;21.15
74449;BMP280;62878;51.026;4.472;2022-09-13T07:13:26;-6051.50;;;21.07
74449;BMP280;62878;51.026;4.472;2022-09-13T07:15:51;-6052.78;;;21.14
74449;BMP280;62878;51.026;4.472;2022-09-13T07:18:16;-6050.00;;;20.98
74449;BMP280;62878;51.026;4.472;2022-09-13T07:20:41;-6052.44;;;21.12
74449;BMP280;62878;51.026;4.472;2022-09-13T07:23:07;-6051.75;;;21.08
74449;BMP280;62878;51.026;4.472;2022-09-13T07:25:32;-6052.09;;;21.10
74449;BMP280;62878;51.026;4.472;2022-09-13T07:27:58;-6051.84;;;21.09
74449;BMP280;62878;51.026;4.472;2022-09-13T07:30:23;-6047.66;;;20.84
74449;BMP280;62878;51.026;4.472;2022-09-13T07:32:50;-6051.69;;;21.08
74449;BMP280;62878;51.026;4.472;2022-09-13T07:35:16;-6051.94;;;21.09
74449;BMP280;62878;51.026;4.472;2022-09-13T07:37:41;-6052.25;;;21.11
74449;BMP280;62878;51.026;4.472;2022-09-13T07:40:07;-6052.00;;;21.10
74449;BMP280;62878;51.026;4.472;2022-09-13T07:42:33;-6052.09;;;21.10
74449;BMP280;62878;51.026;4.472;2022-09-13T07:44:58;-6052.69;;;21.14
74449;BMP280;62878;51.026;4.472;2022-09-13T07:47:23;-6051.09;;;21.04
74449;BMP280;62878;51.026;4.472;2022-09-13T07:49:50;-6052.34;;;21.12
74449;BMP280;62878;51.026;4.472;2022-09-13T07:52:15;-6055.22;;;21.29
74449;BMP280;62878;51.026;4.472;2022-09-13T07:54:40;-6054.28;;;21.23
74449;BMP280;62878;51.026;4.472;2022-09-13T07:57:06;-6054.88;;;21.27
74449;BMP280;62878;51.026;4.472;2022-09-13T07:59:34;-6051.84;;;21.09
74449;BMP280;62878;51.026;4.472;2022-09-13T08:01:59;-6050.84;;;21.03
74449;BMP280;62878;51.026;4.472;2022-09-13T08:04:25;-6052.50;;;21.13
74449;BMP280;62878;51.026;4.472;2022-09-13T08:06:50;-6052.00;;;21.10
74449;BMP280;62878;51.026;4.472;2022-09-13T08:09:16;-6051.84;;;21.09
74449;BMP280;62878;51.026;4.472;2022-09-13T08:11:48;-6050.16;;;20.99
74449;BMP280;62878;51.026;4.472;2022-09-13T08:14:16;-6051.84;;;21.09
74449;BMP280;62878;51.026;4.472;2022-09-13T08:16:41;-6050.34;;;21.00
74449;BMP280;62878;51.026;4.472;2022-09-13T08:19:10;-6037.91;;;20.25
74449;BMP280;62878;51.026;4.472;2022-09-13T08:21:37;-6044.47;;;20.64
74449;BMP280;62878;51.026;4.472;2022-09-13T08:24:04;-6037.91;;;20.25
74449;BMP280;62878;51.026;4.472;2022-09-13T08:26:32;-6043.03;;;20.56
74449;BMP280;62878;51.026;4.472;2022-09-13T08:28:59;-6045.81;;;20.73
74449;BMP280;62878;51.026;4.472;2022-09-13T08:31:26;-6038.81;;;20.31
74449;BMP280;62878;51.026;4.472;2022-09-13T08:33:52;-6040.09;;;20.38
74449;BMP280;62878;51.026;4.472;2022-09-13T08:36:18;-6045.13;;;20.69
74449;BMP280;62878;51.026;4.472;2022-09-13T08:38:47;-6051.69;;;21.08
74449;BMP280;62878;51.026;4.472;2022-09-13T08:43:55;-6050.66;;;21.02
74449;BMP280;62878;51.026;4.472;2022-09-13T08:46:36;-6044.47;;;20.64
74449;BMP280;62878;51.026;4.472;2022-09-13T08:49:06;-6046.81;;;20.79
74449;BMP280;62878;51.026;4.472;2022-09-13T08:54:01;-6046.31;;;20.76
74449;BMP280;62878;51.026;4.472;2022-09-13T08:59:43;-6053.03;;;21.16
74449;BMP280;62878;51.026;4.472;2022-09-13T09:02:28;-6053.94;;;21.21
74449;BMP280;62878;51.026;4.472;2022-09-13T09:05:02;-6055.38;;;21.30
74449;BMP280;62878;51.026;4.472;2022-09-13T09:07:36;-6056.38;;;21.36
74449;BMP280;62878;51.026;4.472;2022-09-13T09:10:15;-6057.47;;;21.43
74449;BMP280;62878;51.026;4.472;2022-09-13T09:12:48;-6056.13;;;21.35
74449;BMP280;62878;51.026;4.472;2022-09-13T09:15:51;-6054.88;;;21.27
74449;BMP280;62878;51.026;4.472;2022-09-13T09:18:20;-6057.22;;;21.41
74449;BMP280;62878;51.026;4.472;2022-09-13T09:20:51;-6053.34;;;21.18
74449;BMP280;62878;51.026;4.472;2022-09-13T09:25:56;-6056.22;;;21.35
74449;BMP280;62878;51.026;4.472;2022-09-13T09:28:22;-6061.91;;;21.69
74449;BMP280;62878;51.026;4.472;2022-09-13T09:31:03;-6062.59;;;21.73
74449;BMP280;62878;51.026;4.472;2022-09-13T09:38:40;-6060.25;;;21.59
74449;BMP280;62878;51.026;4.472;2022-09-13T09:43:47;-6057.22;;;21.41
74449;BMP280;62878;51.026;4.472;2022-09-13T09:46:20;-6059.31;;;21.54
74449;BMP280;62878;51.026;4.472;2022-09-13T09:48:51;-6060.25;;;21.59
74449;BMP280;62878;51.026;4.472;2022-09-13T09:51:19;-6057.88;;;21.45
74449;BMP280;62878;51.026;4.472;2022-09-13T09:53:53;-6060.56;;;21.61
74449;BMP280;62878;51.026;4.472;2022-09-13T09:56:28;-6060.41;;;21.60
74449;BMP280;62878;51.026;4.472;2022-09-13T09:58:54;-6060.41;;;21.60
74449;BMP280;62878;51.026;4.472;2022-09-13T10:06:28;-6060.84;;;21.63
74449;BMP280;62878;51.026;4.472;2022-09-13T10:09:05;-6060.91;;;21.63
74449;BMP280;62878;51.026;4.472;2022-09-13T10:11:58;-6059.75;;;21.56
74449;BMP280;62878;51.026;4.472;2022-09-13T10:14:38;-6060.56;;;21.61
74449;BMP280;62878;51.026;4.472;2022-09-13T10:17:26;-6058.22;;;21.47
74449;BMP280;62878;51.026;4.472;2022-09-13T10:19:54;-6058.06;;;21.46
74449;BMP280;62878;51.026;4.472;2022-09-13T10:22:22;-6060.41;;;21.60
74449;BMP280;62878;51.026;4.472;2022-09-13T10:24:48;-6061.41;;;21.66
74449;BMP280;62878;51.026;4.472;2022-09-13T10:27:31;-6062.25;;;21.71
74449;BMP280;62878;51.026;4.472;2022-09-13T10:29:58;-6062.44;;;21.72
74449;BMP280;62878;51.026;4.472;2022-09-13T10:32:26;-6066.13;;;21.95
74449;BMP280;62878;51.026;4.472;2022-09-13T10:34:53;-6063.75;;;21.80
74449;BMP280;62878;51.026;4.472;2022-09-13T10:37:23;-6069.31;;;22.14
74449;BMP280;62878;51.026;4.472;2022-09-13T10:40:06;-6069.31;;;22.14
74449;BMP280;62878;51.026;4.472;2022-09-13T10:42:33;-6069.81;;;22.17
74449;BMP280;62878;51.026;4.472;2022-09-13T10:45:04;-6071.00;;;22.24
74449;BMP280;62878;51.026;4.472;2022-09-13T10:50:21;-6080.22;;;22.79
74449;BMP280;62878;51.026;4.472;2022-09-13T10:52:49;-6074.34;;;22.44
74449;BMP280;62878;51.026;4.472;2022-09-13T10:57:47;-6079.28;;;22.74
74449;BMP280;62878;51.026;4.472;2022-09-13T11:00:15;-6082.91;;;22.95
74449;BMP280;62878;51.026;4.472;2022-09-13T11:05:47;-6086.34;;;23.16
74449;BMP280;62878;51.026;4.472;2022-09-13T11:11:16;-6078.78;;;22.71
74449;BMP280;62878;51.026;4.472;2022-09-13T11:14:20;-6078.53;;;22.69
74449;BMP280;62878;51.026;4.472;2022-09-13T11:17:03;-6081.97;;;22.90
74449;BMP280;62878;51.026;4.472;2022-09-13T11:22:18;-6090.13;;;23.39
74449;BMP280;62878;51.026;4.472;2022-09-13T11:27:31;-6090.38;;;23.40
74449;BMP280;62878;51.026;4.472;2022-09-13T11:35:08;-6082.81;;;22.95
74449;BMP280;62878;51.026;4.472;2022-09-13T11:37:56;-6080.13;;;22.79
74449;BMP280;62878;51.026;4.472;2022-09-13T11:40:33;-6082.22;;;22.91
74449;BMP280;62878;51.026;4.472;2022-09-13T11:43:04;-6082.91;;;22.95
74449;BMP280;62878;51.026;4.472;2022-09-13T11:45:46;-6087.69;;;23.24
74449;BMP280;62878;51.026;4.472;2022-09-13T11:48:35;-6088.78;;;23.31
74449;BMP280;62878;51.026;4.472;2022-09-13T11:51:14;-6082.06;;;22.90
74449;BMP280;62878;51.026;4.472;2022-09-13T11:56:42;-6073.00;;;22.36
74449;BMP280;62878;51.026;4.472;2022-09-13T11:59:20;-6070.31;;;22.20
74449;BMP280;62878;51.026;4.472;2022-09-13T12:01:56;-6070.91;;;22.23
74449;BMP280;62878;51.026;4.472;2022-09-13T12:04:33;-6070.47;;;22.21
74449;BMP280;62878;51.026;4.472;2022-09-13T12:07:04;-6072.84;;;22.35
74449;BMP280;62878;51.026;4.472;2022-09-13T12:09:48;-6075.25;;;22.50
74449;BMP280;62878;51.026;4.472;2022-09-13T12:12:16;-6074.59;;;22.46
74449;BMP280;62878;51.026;4.472;2022-09-13T12:14:54;-6078.47;;;22.69
74449;BMP280;62878;51.026;4.472;2022-09-13T12:17:39;-6079.03;;;22.72
74449;BMP280;62878;51.026;4.472;2022-09-13T12:20:15;-6079.03;;;22.72
74449;BMP280;62878;51.026;4.472;2022-09-13T12:22:44;-6078.88;;;22.71
74449;BMP280;62878;51.026;4.472;2022-09-13T12:25:53;-6079.03;;;22.72
74449;BMP280;62878;51.026;4.472;2022-09-13T12:28:26;-6077.78;;;22.65
74449;BMP280;62878;51.026;4.472;2022-09-13T12:31:00;-6078.63;;;22.70
74449;BMP280;62878;51.026;4.472;2022-09-13T12:33:26;-6078.38;;;22.68
74449;BMP280;62878;51.026;4.472;2022-09-13T12:36:33;-6078.53;;;22.69
74449;BMP280;62878;51.026;4.472;2022-09-13T12:39:43;-6078.53;;;22.69
74449;BMP280;62878;51.026;4.472;2022-09-13T12:42:28;-6078.53;;;22.69
74449;BMP280;62878;51.026;4.472;2022-09-13T12:48:09;-6076.19;;;22.55
74449;BMP280;62878;51.026;4.472;2022-09-13T12:53:37;-6077.69;;;22.64
74449;BMP280;62878;51.026;4.472;2022-09-13T13:01:25;-6077.78;;;22.65
74449;BMP280;62878;51.026;4.472;2022-09-13T13:04:09;-6077.69;;;22.64
74449;BMP280;62878;51.026;4.472;2022-09-13T13:06:40;-6077.13;;;22.61
74449;BMP280;62878;51.026;4.472;2022-09-13T13:11:58;-6077.53;;;22.63
74449;BMP280;62878;51.026;4.472;2022-09-13T13:26:05;-6076.78;;;22.59
74449;BMP280;62878;51.026;4.472;2022-09-13T13:28:49;-6076.69;;;22.58
74449;BMP280;62878;51.026;4.472;2022-09-13T13:55:00;-6077.03;;;22.60
74449;BMP280;62878;51.026;4.472;2022-09-13T14:05:33;-6077.19;;;22.61
74449;BMP280;62878;51.026;4.472;2022-09-13T14:13:43;-6077.13;;;22.61
74449;BMP280;62878;51.026;4.472;2022-09-13T14:21:41;-6077.28;;;22.62
74449;BMP280;62878;51.026;4.472;2022-09-13T14:24:17;-6077.19;;;22.61
74449;BMP280;62878;51.026;4.472;2022-09-13T14:26:47;-6077.44;;;22.63
74449;BMP280;62878;51.026;4.472;2022-09-13T14:29:19;-6077.38;;;22.62
74449;BMP280;62878;51.026;4.472;2022-09-13T14:31:49;-6077.19;;;22.61
74449;BMP280;62878;51.026;4.472;2022-09-13T14:34:25;-6077.19;;;22.61
74449;BMP280;62878;51.026;4.472;2022-09-13T14:36:57;-6077.19;;;22.61
74449;BMP280;62878;51.026;4.472;2022-09-13T14:39:24;-6077.28;;;22.62
74449;BMP280;62878;51.026;4.472;2022-09-13T14:41:58;-6076.78;;;22.59
74449;BMP280;62878;51.026;4.472;2022-09-13T14:44:25;-6075.59;;;22.52
74449;BMP280;62878;51.026;4.472;2022-09-13T14:47:49;-6075.44;;;22.51
74449;BMP280;62878;51.026;4.472;2022-09-13T14:49:53;-6074.50;;;22.45
74449;BMP280;62878;51.026;4.472;2022-09-13T14:52:24;-6074.34;;;22.44
74449;BMP280;62878;51.026;4.472;2022-09-13T14:54:53;-6072.16;;;22.31
74449;BMP280;62878;51.026;4.472;2022-09-13T14:57:29;-6075.69;;;22.52
74449;BMP280;62878;51.026;4.472;2022-09-13T15:00:04;-6072.41;;;22.32
74449;BMP280;62878;51.026;4.472;2022-09-13T15:02:36;-6075.00;;;22.48
74449;BMP280;62878;51.026;4.472;2022-09-13T15:05:04;-6075.25;;;22.50
74449;BMP280;62878;51.026;4.472;2022-09-13T15:07:35;-6073.50;;;22.39
74449;BMP280;62878;51.026;4.472;2022-09-13T15:12:33;-6072.75;;;22.34
74449;BMP280;62878;51.026;4.472;2022-09-13T15:23:34;-6073.94;;;22.42
74449;BMP280;62878;51.026;4.472;2022-09-13T15:26:05;-6072.16;;;22.31
74449;BMP280;62878;51.026;4.472;2022-09-13T15:28:58;-6073.50;;;22.39
74449;BMP280;62878;51.026;4.472;2022-09-13T15:31:33;-6072.84;;;22.35
74449;BMP280;62878;51.026;4.472;2022-09-13T15:36:44;-6074.09;;;22.42
74449;BMP280;62878;51.026;4.472;2022-09-13T15:39:17;-6073.34;;;22.38
74449;BMP280;62878;51.026;4.472;2022-09-13T15:41:57;-6074.34;;;22.44
74449;BMP280;62878;51.026;4.472;2022-09-13T15:44:25;-6074.44;;;22.45
74449;BMP280;62878;51.026;4.472;2022-09-13T15:46:56;-6074.34;;;22.44
74449;BMP280;62878;51.026;4.472;2022-09-13T15:49:25;-6071.16;;;22.25
74449;BMP280;62878;51.026;4.472;2022-09-13T15:51:54;-6072.00;;;22.30
74449;BMP280;62878;51.026;4.472;2022-09-13T15:54:20;-6074.75;;;22.47
74449;BMP280;62878;51.026;4.472;2022-09-13T15:56:47;-6074.69;;;22.46
74449;BMP280;62878;51.026;4.472;2022-09-13T15:59:17;-6075.44;;;22.51
74449;BMP280;62878;51.026;4.472;2022-09-13T16:01:44;-6068.88;;;22.11
74449;BMP280;62878;51.026;4.472;2022-09-13T16:04:10;-6075.44;;;22.51
74449;BMP280;62878;51.026;4.472;2022-09-13T16:06:36;-6075.25;;;22.50
74449;BMP280;62878;51.026;4.472;2022-09-13T16:09:28;-6074.69;;;22.46
74449;BMP280;62878;51.026;4.472;2022-09-13T16:11:52;-6074.59;;;22.46
74449;BMP280;62878;51.026;4.472;2022-09-13T16:14:18;-6074.25;;;22.44
74449;BMP280;62878;51.026;4.472;2022-09-13T16:16:44;-6073.94;;;22.42
74449;BMP280;62878;51.026;4.472;2022-09-13T16:19:20;-6074.44;;;22.45
74449;BMP280;62878;51.026;4.472;2022-09-13T16:21:46;-6074.50;;;22.45
74449;BMP280;62878;51.026;4.472;2022-09-13T16:24:12;-6074.75;;;22.47
74449;BMP280;62878;51.026;4.472;2022-09-13T16:26:39;-6074.94;;;22.48
74449;BMP280;62878;51.026;4.472;2022-09-13T16:29:04;-6075.25;;;22.50
74449;BMP280;62878;51.026;4.472;2022-09-13T16:31:30;-6074.00;;;22.42
74449;BMP280;62878;51.026;4.472;2022-09-13T16:33:55;-6067.22;;;22.01
74449;BMP280;62878;51.026;4.472;2022-09-13T16:36:21;-6075.53;;;22.51
74449;BMP280;62878;51.026;4.472;2022-09-13T16:38:46;-6075.78;;;22.53
74449;BMP280;62878;51.026;4.472;2022-09-13T16:41:11;-6075.59;;;22.52
74449;BMP280;62878;51.026;4.472;2022-09-13T16:43:37;-6073.84;;;22.41
74449;BMP280;62878;51.026;4.472;2022-09-13T16:46:10;-6075.84;;;22.53
74449;BMP280;62878;51.026;4.472;2022-09-13T16:48:36;-6075.84;;;22.53
74449;BMP280;62878;51.026;4.472;2022-09-13T16:51:03;-6075.59;;;22.52
74449;BMP280;62878;51.026;4.472;2022-09-13T16:53:35;-6073.00;;;22.36
74449;BMP280;62878;51.026;4.472;2022-09-13T16:56:22;-6075.84;;;22.53
74449;BMP280;62878;51.026;4.472;2022-09-13T16:58:49;-6075.53;;;22.51
74449;BMP280;62878;51.026;4.472;2022-09-13T17:01:17;-6075.69;;;22.52
74449;BMP280;62878;51.026;4.472;2022-09-13T17:03:43;-6075.84;;;22.53
74449;BMP280;62878;51.026;4.472;2022-09-13T17:06:11;-6075.78;;;22.53
74449;BMP280;62878;51.026;4.472;2022-09-13T17:08:38;-6075.78;;;22.53
74449;BMP280;62878;51.026;4.472;2022-09-13T17:11:06;-6075.59;;;22.52
74449;BMP280;62878;51.026;4.472;2022-09-13T17:13:33;-6075.19;;;22.49
74449;BMP280;62878;51.026;4.472;2022-09-13T17:15:58;-6075.59;;;22.52
74449;BMP280;62878;51.026;4.472;2022-09-13T17:18:24;-6073.50;;;22.39
74449;BMP280;62878;51.026;4.472;2022-09-13T17:20:49;-6073.09;;;22.36